Time;durP1;ratioP1;P1;durP2;ratioP2;P2;SDS_P1;SDS_P2;PMS_P1;PMS_P2;Temp;Humidity;BMP_temperature;BMP_pressure;BME280_temperature;BME280_humidity;BME280_pressure;Samples;Min_cycle;Max_cycle;Signal;HPM_P1;HPM_P2
2021/08/05 00:00:16;;;;;;;11.10;10.10;;;;;;;14.83;84.96;101292.53;695132;28;880;-61
2021/08/05 00:00:36;;;;;;;11.38;10.38;;;;;;;14.80;85.13;101298.88;694522;28;1472;-59
2021/08/05 00:00:59;;;;;;;11.63;10.53;;;;;;;14.78;85.30;101294.59;694957;28;1923;-60
2021/08/05 00:01:19;;;;;;;11.43;10.32;;;;;;;14.77;85.42;101293.72;695155;28;919;-60
2021/08/05 00:01:39;;;;;;;11.30;10.20;;;;;;;14.78;84.97;101294.59;695029;28;828;-61
2021/08/05 00:02:03;;;;;;;11.27;10.27;;;;;;;14.81;85.09;101291.78;694997;28;906;-60
2021/08/05 00:02:23;;;;;;;11.27;10.23;;;;;;;14.82;84.90;101296.13;694705;28;1401;-59
2021/08/05 00:02:43;;;;;;;11.52;10.50;;;;;;;14.81;84.95;101289.97;691827;28;1420;-59
2021/08/05 00:03:06;;;;;;;11.90;10.80;;;;;;;14.80;85.30;101292.72;692427;28;1018;-61
2021/08/05 00:03:26;;;;;;;11.77;10.70;;;;;;;14.81;85.22;101292.63;691513;28;903;-60
2021/08/05 00:03:47;;;;;;;11.83;10.73;;;;;;;14.80;85.32;101293.56;691268;28;1031;-60
2021/08/05 00:04:07;;;;;;;11.47;10.37;;;;;;;14.81;85.34;101291.78;691087;28;991;-59
2021/08/05 00:04:27;;;;;;;10.90;9.90;;;;;;;14.80;85.18;101292.72;691113;28;926;-60
2021/08/05 00:04:48;;;;;;;11.63;10.63;;;;;;;14.81;85.57;101297.09;690997;28;896;-60
2021/08/05 00:05:11;;;;;;;11.90;10.90;;;;;;;14.76;85.53;101285.84;691126;28;1026;-60
2021/08/05 00:05:31;;;;;;;11.75;10.75;;;;;;;14.81;85.52;101294.44;690976;28;1082;-59
2021/08/05 00:05:52;;;;;;;11.60;10.60;;;;;;;14.81;85.42;101294.44;691132;28;853;-60
2021/08/05 00:06:13;;;;;;;11.55;10.55;;;;;;;14.78;85.66;101294.59;691119;28;983;-59
2021/08/05 00:06:34;;;;;;;11.70;10.60;;;;;;;14.77;85.45;101287.56;691006;28;992;-60
2021/08/05 00:06:54;;;;;;;11.88;10.77;;;;;;;14.77;85.57;101292.88;691089;28;841;-59
2021/08/05 00:07:14;;;;;;;11.30;10.27;;;;;;;14.78;85.71;101289.28;691161;28;812;-60
2021/08/05 00:07:38;;;;;;;11.57;10.48;;;;;;;14.79;85.77;101297.16;691054;28;837;-59
2021/08/05 00:08:01;;;;;;;11.30;10.30;;;;;;;14.80;85.47;101290.94;690808;28;1403;-59
2021/08/05 00:08:24;;;;;;;11.63;10.63;;;;;;;14.80;85.73;101284.75;690926;28;1421;-60
2021/08/05 00:08:44;;;;;;;11.50;10.50;;;;;;;14.77;85.73;101288.44;693462;28;1373;-61
2021/08/05 00:09:07;;;;;;;11.40;10.40;;;;;;;14.79;85.55;101291.84;693753;28;987;-61
2021/08/05 00:09:30;;;;;;;11.48;10.48;;;;;;;14.77;85.67;101284.91;691790;28;1523;-61
2021/08/05 00:09:57;;;;;;;12.15;11.05;;;;;;;14.77;85.58;101287.56;691064;28;879;-60
2021/08/05 00:10:17;;;;;;;11.55;10.52;;;;;;;14.77;85.45;101283.13;691082;28;878;-58
2021/08/05 00:10:37;;;;;;;11.30;10.30;;;;;;;14.75;85.39;101290.28;690854;28;1270;-59
2021/08/05 00:10:57;;;;;;;11.55;10.45;;;;;;;14.76;85.63;101291.13;691070;28;1104;-59
2021/08/05 00:11:18;;;;;;;11.33;10.33;;;;;;;14.75;85.75;101284.13;690977;28;987;-59
2021/08/05 00:11:39;;;;;;;11.93;10.82;;;;;;;14.77;85.42;101292.88;690668;28;883;-60
2021/08/05 00:12:08;;;;;;;11.47;10.50;;;;;;;14.76;85.55;101286.69;691122;28;1042;-60
2021/08/05 00:12:31;;;;;;;11.60;10.50;;;;;;;14.78;85.59;101289.28;690999;28;1397;-60
2021/08/05 00:12:54;;;;;;;12.07;10.88;;;;;;;14.79;85.34;101290.97;690515;28;1497;-60
2021/08/05 00:13:14;;;;;;;11.15;10.15;;;;;;;14.75;85.56;101286.78;691125;28;948;-59
2021/08/05 00:13:34;;;;;;;11.47;10.37;;;;;;;14.78;85.52;101284.81;690382;28;1255;-60
2021/08/05 00:13:55;;;;;;;11.77;10.77;;;;;;;14.81;85.45;101289.13;691116;28;893;-59
2021/08/05 00:14:15;;;;;;;11.57;10.50;;;;;;;14.82;85.53;101285.53;690965;28;864;-60
2021/08/05 00:14:38;;;;;;;11.53;10.53;;;;;;;14.82;85.45;101286.38;691139;28;805;-60
2021/08/05 00:14:58;;;;;;;11.30;10.30;;;;;;;14.79;85.51;101281.22;690998;28;984;-60
2021/08/05 00:15:21;;;;;;;11.70;10.70;;;;;;;14.75;85.54;101286.78;690946;28;878;-59
2021/08/05 00:15:41;;;;;;;11.90;10.90;;;;;;;14.76;85.63;101286.69;691200;28;880;-59
2021/08/05 00:16:04;;;;;;;11.47;10.47;;;;;;;14.80;85.60;101287.41;691082;28;913;-60
2021/08/05 00:16:25;;;;;;;11.07;10.07;;;;;;;14.80;85.40;101279.47;690986;28;876;-60
2021/08/05 00:16:45;;;;;;;11.50;10.50;;;;;;;14.76;85.58;101280.53;691134;28;876;-59
2021/08/05 00:17:06;;;;;;;11.88;10.80;;;;;;;14.72;85.67;101279.84;691067;28;935;-59
2021/08/05 00:17:26;;;;;;;11.70;10.70;;;;;;;14.69;85.83;101280.00;690990;28;919;-59
2021/08/05 00:17:47;;;;;;;11.53;10.53;;;;;;;14.67;85.99;101285.38;691129;28;919;-60
2021/08/05 00:18:07;;;;;;;11.90;10.80;;;;;;;14.67;85.63;101282.75;690971;28;840;-59
2021/08/05 00:18:27;;;;;;;11.90;10.70;;;;;;;14.68;85.84;101273.84;691069;28;995;-59
2021/08/05 00:18:53;;;;;;;11.37;10.33;;;;;;;14.69;85.92;101280.88;691124;28;825;-59
2021/08/05 00:19:14;;;;;;;11.43;10.43;;;;;;;14.70;85.97;101282.56;690866;28;1029;-59
2021/08/05 00:19:34;;;;;;;11.48;10.48;;;;;;;14.74;85.69;101282.44;690995;28;1086;-60
2021/08/05 00:19:55;;;;;;;11.37;10.37;;;;;;;14.73;85.89;101278.91;691119;28;935;-60
2021/08/05 00:20:15;;;;;;;11.32;10.23;;;;;;;14.73;86.01;101281.56;690932;28;881;-59
2021/08/05 00:20:35;;;;;;;11.53;10.43;;;;;;;14.69;86.01;101280.88;691017;28;1340;-59
2021/08/05 00:20:56;;;;;;;11.43;10.33;;;;;;;14.67;86.18;101272.13;691109;28;1906;-59
2021/08/05 00:21:17;;;;;;;11.20;10.20;;;;;;;14.72;86.06;101279.84;691057;28;920;-60
2021/08/05 00:21:38;;;;;;;11.75;10.65;;;;;;;14.72;85.87;101275.38;691065;28;1051;-59
2021/08/05 00:21:58;;;;;;;11.47;10.37;;;;;;;14.69;86.08;101275.56;691171;28;971;-60
2021/08/05 00:22:19;;;;;;;10.77;9.87;;;;;;;14.70;86.01;101279.94;691017;28;1417;-60
2021/08/05 00:22:39;;;;;;;11.47;10.47;;;;;;;14.70;86.30;101271.97;690871;28;832;-59
2021/08/05 00:22:59;;;;;;;11.33;10.33;;;;;;;14.71;86.21;101268.38;690947;28;841;-61
2021/08/05 00:23:20;;;;;;;11.02;10.07;;;;;;;14.70;86.00;101277.28;690974;28;793;-60
2021/08/05 00:23:40;;;;;;;11.00;10.10;;;;;;;14.74;85.81;101274.47;691071;28;853;-59
2021/08/05 00:24:00;;;;;;;11.40;10.40;;;;;;;14.72;85.66;101274.53;691044;28;828;-59
2021/08/05 00:24:21;;;;;;;11.73;10.63;;;;;;;14.72;85.60;101275.38;690998;28;1069;-60
2021/08/05 00:24:41;;;;;;;11.80;10.80;;;;;;;14.73;85.78;101276.25;691088;28;1002;-59
2021/08/05 00:25:02;;;;;;;11.50;10.48;;;;;;;14.75;85.67;101277.03;691138;28;875;-60
2021/08/05 00:25:23;;;;;;;11.48;10.40;;;;;;;14.76;85.85;101277.88;691037;28;825;-59
2021/08/05 00:25:43;;;;;;;11.07;10.07;;;;;;;14.76;85.84;101280.53;691055;28;983;-59
2021/08/05 00:26:03;;;;;;;11.52;10.52;;;;;;;14.73;85.97;101273.63;690886;28;1059;-60
2021/08/05 00:26:23;;;;;;;11.30;10.30;;;;;;;14.73;85.92;101270.97;690871;28;1138;-59
2021/08/05 00:26:44;;;;;;;11.50;10.50;;;;;;;14.73;85.71;101273.63;691038;28;922;-59
2021/08/05 00:27:04;;;;;;;11.45;10.45;;;;;;;14.74;85.96;101267.34;691087;28;825;-59
2021/08/05 00:27:31;;;;;;;11.27;10.27;;;;;;;14.74;85.88;101269.16;691037;28;872;-60
2021/08/05 00:27:51;;;;;;;11.85;10.75;;;;;;;14.69;85.67;101272.03;691020;28;868;-60
2021/08/05 00:28:11;;;;;;;11.63;10.60;;;;;;;14.68;86.03;101267.66;691002;28;924;-59
2021/08/05 00:28:33;;;;;;;11.80;10.80;;;;;;;14.66;85.86;101269.56;691043;28;840;-60
2021/08/05 00:28:54;;;;;;;12.10;11.00;;;;;;;14.68;85.88;101275.63;691052;28;852;-59
2021/08/05 00:29:14;;;;;;;11.70;10.60;;;;;;;14.66;86.10;101270.41;691037;28;891;-59
2021/08/05 00:29:34;;;;;;;11.57;10.50;;;;;;;14.69;86.10;101269.38;691073;28;976;-59
2021/08/05 00:29:55;;;;;;;11.40;10.40;;;;;;;14.69;85.85;101275.56;693347;28;1413;-59
2021/08/05 00:30:15;;;;;;;11.80;10.80;;;;;;;14.68;86.15;101273.84;693546;28;1397;-59
2021/08/05 00:30:38;;;;;;;11.47;10.47;;;;;;;14.63;86.19;101270.56;693663;28;1329;-59
2021/08/05 00:30:58;;;;;;;11.68;10.68;;;;;;;14.62;86.27;101274.13;693790;28;891;-59
2021/08/05 00:31:18;;;;;;;11.77;10.75;;;;;;;14.66;85.93;101275.72;693850;28;936;-60
2021/08/05 00:31:39;;;;;;;11.67;10.67;;;;;;;14.61;86.28;101272.44;693621;28;1278;-59
2021/08/05 00:31:59;;;;;;;12.00;10.90;;;;;;;14.60;85.91;101270.72;692401;28;1349;-60
2021/08/05 00:32:19;;;;;;;11.75;10.68;;;;;;;14.61;86.13;101269.78;693967;28;880;-60
2021/08/05 00:32:40;;;;;;;11.63;10.63;;;;;;;14.65;86.12;101273.13;693522;28;1101;-60
2021/08/05 00:33:03;;;;;;;11.80;10.80;;;;;;;14.65;85.80;101279.28;693561;28;881;-60
2021/08/05 00:33:23;;;;;;;11.63;10.63;;;;;;;14.66;85.98;101267.75;693545;28;1409;-59
2021/08/05 00:33:44;;;;;;;11.33;10.33;;;;;;;14.68;85.99;101268.53;693404;28;1409;-59
2021/08/05 00:34:04;;;;;;;11.43;10.40;;;;;;;14.69;85.76;101275.56;693873;28;824;-60
2021/08/05 00:34:24;;;;;;;12.40;11.30;;;;;;;14.68;85.53;101273.84;693970;28;874;-59
2021/08/05 00:34:47;;;;;;;11.93;10.83;;;;;;;14.66;85.83;101270.41;693383;28;1488;-59
2021/08/05 00:35:08;;;;;;;11.23;10.23;;;;;;;14.63;85.86;101270.56;693944;28;812;-60
2021/08/05 00:35:31;;;;;;;11.57;10.48;;;;;;;14.63;85.83;101265.28;693792;28;1143;-59
2021/08/05 00:35:51;;;;;;;11.80;10.60;;;;;;;14.65;85.75;101266.03;693700;28;953;-59
2021/08/05 00:36:12;;;;;;;11.63;10.52;;;;;;;14.66;85.67;101269.56;693781;28;923;-60
2021/08/05 00:36:32;;;;;;;11.23;10.20;;;;;;;14.65;85.90;101266.03;693640;28;859;-60
2021/08/05 00:36:52;;;;;;;11.13;10.13;;;;;;;14.65;85.68;101262.53;693698;28;859;-60
2021/08/05 00:37:13;;;;;;;11.35;10.35;;;;;;;14.66;85.87;101269.56;693850;28;859;-60
2021/08/05 00:37:33;;;;;;;11.20;10.20;;;;;;;14.67;85.68;101268.63;693658;28;918;-59
2021/08/05 00:37:56;;;;;;;11.70;10.70;;;;;;;14.66;85.76;101267.75;693714;28;914;-59
2021/08/05 00:38:19;;;;;;;11.43;10.43;;;;;;;14.67;85.86;101265.97;693527;28;1095;-59
2021/08/05 00:38:42;;;;;;;11.18;10.18;;;;;;;14.63;85.96;101265.28;693283;28;1381;-59
2021/08/05 00:39:03;;;;;;;11.35;10.35;;;;;;;14.60;86.05;101267.22;693739;28;1006;-59
2021/08/05 00:39:23;;;;;;;11.47;10.47;;;;;;;14.56;86.23;101266.53;692608;28;1473;-60
2021/08/05 00:39:43;;;;;;;11.40;10.40;;;;;;;14.59;86.28;101269.03;690840;28;959;-59
2021/08/05 00:40:05;;;;;;;11.80;10.70;;;;;;;14.61;86.23;101264.47;691043;28;955;-60
2021/08/05 00:40:28;;;;;;;11.50;10.50;;;;;;;14.63;86.06;101270.56;690806;28;1322;-59
2021/08/05 00:40:49;;;;;;;11.30;10.30;;;;;;;14.62;86.07;101274.13;690931;28;959;-59
2021/08/05 00:41:09;;;;;;;11.38;10.32;;;;;;;14.64;85.74;101272.28;690984;28;1911;-60
2021/08/05 00:41:29;;;;;;;11.70;10.60;;;;;;;14.65;86.01;101275.78;691021;28;828;-59
2021/08/05 00:41:50;;;;;;;11.50;10.50;;;;;;;14.63;85.82;101267.91;690973;28;1461;-59
2021/08/05 00:42:10;;;;;;;11.57;10.57;;;;;;;14.62;85.86;101275.94;693555;28;1424;-59
2021/08/05 00:42:31;;;;;;;11.30;10.30;;;;;;;14.62;85.91;101274.13;693187;28;1409;-59
2021/08/05 00:42:53;;;;;;;11.85;10.75;;;;;;;14.64;85.97;101268.78;693232;28;844;-59
2021/08/05 00:43:13;;;;;;;11.55;10.52;;;;;;;14.63;85.83;101265.28;693766;28;917;-59
2021/08/05 00:43:36;;;;;;;11.30;10.30;;;;;;;14.64;85.86;101272.28;693733;28;852;-59
2021/08/05 00:44:01;;;;;;;11.30;10.30;;;;;;;14.59;85.81;101263.72;693682;28;931;-59
2021/08/05 00:44:22;;;;;;;11.45;10.45;;;;;;;14.56;86.07;101266.53;693632;28;854;-59
2021/08/05 00:44:42;;;;;;;10.97;9.97;;;;;;;14.55;86.01;101270.09;691536;28;1338;-59
2021/08/05 00:45:03;;;;;;;11.37;10.37;;;;;;;14.57;85.86;101265.56;691001;28;966;-59
2021/08/05 00:45:23;;;;;;;11.68;10.68;;;;;;;14.54;85.95;101262.22;690954;28;872;-59
2021/08/05 00:45:44;;;;;;;12.27;11.18;;;;;;;14.50;86.09;101258.88;691029;28;1085;-60
2021/08/05 00:46:04;;;;;;;11.70;10.70;;;;;;;14.48;86.45;101261.56;690907;28;1010;-60
2021/08/05 00:46:27;;;;;;;12.20;11.10;;;;;;;14.50;86.50;101264.19;690807;28;947;-60
2021/08/05 00:46:50;;;;;;;11.95;10.90;;;;;;;14.51;86.60;101259.72;690970;28;911;-59
2021/08/05 00:47:13;;;;;;;11.43;10.48;;;;;;;14.52;86.45;101261.44;690996;28;963;-60
2021/08/05 00:47:33;;;;;;;11.57;10.57;;;;;;;14.49;86.57;101258.00;690918;28;851;-59
2021/08/05 00:47:56;;;;;;;12.27;11.17;;;;;;;14.47;86.73;101259.84;690980;28;893;-59
2021/08/05 00:48:16;;;;;;;12.35;11.25;;;;;;;14.49;86.60;101257.13;690950;28;1018;-59
2021/08/05 00:48:39;;;;;;;11.93;10.83;;;;;;;14.48;86.67;101260.69;690917;28;769;-59
2021/08/05 00:49:03;;;;;;;11.90;10.90;;;;;;;14.47;86.63;101253.69;690936;28;871;-59
2021/08/05 00:49:25;;;;;;;12.73;11.63;;;;;;;14.48;86.46;101255.41;690929;28;1010;-60
2021/08/05 00:49:46;;;;;;;12.57;11.48;;;;;;;14.50;86.47;101258.88;690976;28;967;-59
2021/08/05 00:50:06;;;;;;;12.00;10.90;;;;;;;14.51;86.40;101260.59;690927;28;771;-59
2021/08/05 00:50:27;;;;;;;12.20;11.10;;;;;;;14.52;86.61;101262.31;690824;28;1295;-60
2021/08/05 00:50:48;;;;;;;12.70;11.53;;;;;;;14.50;86.38;101264.19;690877;28;929;-60
2021/08/05 00:51:09;;;;;;;12.20;11.10;;;;;;;14.49;86.59;101255.34;691047;28;834;-59
2021/08/05 00:51:29;;;;;;;11.80;10.80;;;;;;;14.46;86.57;101262.59;690947;28;892;-59
2021/08/05 00:51:52;;;;;;;12.25;11.10;;;;;;;14.44;86.47;101256.50;690961;28;1085;-59
2021/08/05 00:52:13;;;;;;;12.35;11.18;;;;;;;14.46;86.49;101252.00;693392;28;1484;-59
2021/08/05 00:52:33;;;;;;;12.13;11.03;;;;;;;14.47;86.43;101256.34;693646;28;1014;-59
2021/08/05 00:52:54;;;;;;;12.05;10.95;;;;;;;14.49;86.21;101255.34;693169;28;1041;-59
2021/08/05 00:53:17;;;;;;;11.97;10.97;;;;;;;14.50;86.23;101253.56;693602;28;1089;-59
2021/08/05 00:53:43;;;;;;;12.40;11.30;;;;;;;14.52;86.16;101257.03;693694;28;1077;-59
2021/08/05 00:54:04;;;;;;;12.45;11.35;;;;;;;14.51;86.08;101255.28;691048;28;958;-59
2021/08/05 00:54:24;;;;;;;12.85;11.65;;;;;;;14.50;86.10;101253.56;690984;28;872;-59
2021/08/05 00:54:45;;;;;;;12.97;11.77;;;;;;;14.48;86.11;101245.66;690858;28;843;-59
2021/08/05 00:55:06;;;;;;;12.40;11.30;;;;;;;14.49;86.17;101257.13;691016;28;994;-60
2021/08/05 00:55:27;;;;;;;12.00;10.90;;;;;;;14.47;86.19;101248.38;690889;28;848;-59
2021/08/05 00:55:47;;;;;;;11.60;10.60;;;;;;;14.49;85.88;101250.03;690917;28;915;-59
2021/08/05 00:56:08;;;;;;;12.10;11.00;;;;;;;14.48;85.92;101250.09;690921;28;900;-59
2021/08/05 00:56:28;;;;;;;12.05;10.95;;;;;;;14.48;86.05;101250.09;691292;28;1050;-60
2021/08/05 00:56:49;;;;;;;12.35;11.25;;;;;;;14.45;86.12;101250.25;690965;28;1309;-59
2021/08/05 00:57:09;;;;;;;12.53;11.33;;;;;;;14.39;85.98;101245.28;691029;28;924;-60
2021/08/05 00:57:29;;;;;;;11.93;10.83;;;;;;;14.44;86.27;101249.41;691011;28;927;-59
2021/08/05 00:57:50;;;;;;;11.82;10.82;;;;;;;14.46;86.23;101250.19;690983;28;958;-59
2021/08/05 00:58:16;;;;;;;12.20;11.10;;;;;;;14.46;86.06;101249.34;690953;28;813;-59
2021/08/05 00:58:36;;;;;;;11.88;10.82;;;;;;;14.46;86.21;101247.53;691084;28;1736;-60
2021/08/05 00:58:57;;;;;;;12.23;11.13;;;;;;;14.48;86.14;101255.41;690865;28;832;-60
2021/08/05 00:59:17;;;;;;;12.00;10.90;;;;;;;14.45;86.15;101244.94;690866;28;912;-60
2021/08/05 00:59:38;;;;;;;12.32;11.23;;;;;;;14.45;86.10;101247.59;690998;28;829;-60
2021/08/05 00:59:59;;;;;;;12.10;11.00;;;;;;;14.47;86.15;101251.03;690991;28;840;-59
2021/08/05 01:00:19;;;;;;;12.07;10.98;;;;;;;14.48;86.05;101250.94;690988;28;1430;-60
2021/08/05 01:00:49;;;;;;;11.82;10.77;;;;;;;14.47;85.98;101248.38;690850;28;1477;-59
2021/08/05 01:01:14;;;;;;;11.90;10.85;;;;;;;14.49;86.06;101254.50;690824;28;1910;-60
2021/08/05 01:01:50;;;;;;;12.23;11.13;;;;;;;14.48;86.15;101250.09;690908;28;1003;-59
2021/08/05 01:02:16;;;;;;;12.10;10.90;;;;;;;14.47;86.09;101248.38;692660;28;1428;-59
2021/08/05 01:02:44;;;;;;;12.20;11.10;;;;;;;14.48;86.15;101250.09;693602;28;868;-60
2021/08/05 01:03:23;;;;;;;11.85;10.82;;;;;;;14.43;85.91;101249.50;693341;28;1127;-60
2021/08/05 01:03:45;;;;;;;11.88;10.77;;;;;;;14.37;86.10;101249.81;693638;28;939;-59
2021/08/05 01:04:08;;;;;;;11.95;10.85;;;;;;;14.37;86.13;101248.00;693547;28;860;-59
2021/08/05 01:04:32;;;;;;;12.00;10.90;;;;;;;14.39;86.14;101247.94;693648;28;950;-59
2021/08/05 01:04:54;;;;;;;12.05;10.95;;;;;;;14.38;86.20;101244.44;693626;28;942;-59
2021/08/05 01:05:17;;;;;;;12.13;11.02;;;;;;;14.40;86.19;101239.03;693571;28;871;-59
2021/08/05 01:05:42;;;;;;;11.93;10.82;;;;;;;14.41;86.38;101243.41;693583;28;1089;-59
2021/08/05 01:06:27;;;;;;;12.00;10.90;;;;;;;14.39;86.27;101246.13;693627;28;974;-59
2021/08/05 01:06:47;;;;;;;12.18;11.07;;;;;;;14.35;86.46;101238.41;693257;28;1332;-59
2021/08/05 01:07:28;;;;;;;12.03;11.03;;;;;;;14.31;86.51;101247.44;693654;28;856;-60
2021/08/05 01:08:01;;;;;;;12.75;11.65;;;;;;;14.33;86.75;101241.16;693662;28;1047;-60
2021/08/05 01:08:25;;;;;;;11.98;10.98;;;;;;;14.32;86.70;101239.44;693832;28;978;-61
2021/08/05 01:08:52;;;;;;;12.00;10.90;;;;;;;14.31;86.60;101247.44;692452;28;1495;-60
2021/08/05 01:09:48;;;;;;;12.15;11.10;;;;;;;14.29;86.83;101241.38;690900;28;888;-61
2021/08/05 01:10:35;;;;;;;12.30;11.10;;;;;;;14.35;86.92;101238.41;691050;28;832;-59
2021/08/05 01:11:11;;;;;;;12.23;11.13;;;;;;;14.36;86.96;101240.13;690851;28;841;-59
2021/08/05 01:11:41;;;;;;;12.15;11.05;;;;;;;14.37;86.69;101244.50;690925;28;943;-60
2021/08/05 01:12:13;;;;;;;12.23;11.20;;;;;;;14.37;86.90;101244.50;691256;28;1548;-60
2021/08/05 01:12:58;;;;;;;12.05;10.95;;;;;;;14.35;86.79;101239.28;693622;28;1185;-60
2021/08/05 01:13:35;;;;;;;12.50;11.40;;;;;;;14.33;86.94;101241.16;693760;28;1025;-60
2021/08/05 01:13:59;;;;;;;12.10;11.00;;;;;;;14.34;86.80;101242.00;693568;28;868;-60
2021/08/05 01:14:23;;;;;;;12.10;11.00;;;;;;;14.32;87.11;101241.22;693725;28;920;-59
2021/08/05 01:14:52;;;;;;;12.10;11.02;;;;;;;14.33;86.87;101238.50;693557;28;943;-59
2021/08/05 01:15:28;;;;;;;12.48;11.27;;;;;;;14.35;86.74;101243.69;693649;28;1090;-60
2021/08/05 01:15:52;;;;;;;11.60;10.50;;;;;;;14.34;86.78;101237.53;693530;28;1019;-59
2021/08/05 01:16:15;;;;;;;11.77;10.70;;;;;;;14.34;86.65;101239.34;693689;28;981;-59
2021/08/05 01:16:39;;;;;;;11.95;10.85;;;;;;;14.27;86.63;101232.66;693739;28;852;-59
2021/08/05 01:17:01;;;;;;;12.30;11.20;;;;;;;14.28;86.92;101237.00;693485;28;1043;-59
2021/08/05 01:17:24;;;;;;;12.15;11.05;;;;;;;14.21;87.25;101242.63;693654;28;1046;-60
2021/08/05 01:17:52;;;;;;;12.23;11.10;;;;;;;14.18;87.04;101241.94;693502;28;930;-59
2021/08/05 01:18:23;;;;;;;11.70;10.60;;;;;;;14.22;87.08;101248.78;693597;28;1061;-60
2021/08/05 01:18:46;;;;;;;12.00;10.90;;;;;;;14.18;87.10;101248.09;693625;28;729;-59
2021/08/05 01:19:30;;;;;;;12.65;11.50;;;;;;;14.17;87.22;101243.69;693583;28;879;-59
2021/08/05 01:19:56;;;;;;;11.93;10.82;;;;;;;14.17;86.98;101241.06;693484;28;808;-59
2021/08/05 01:20:20;;;;;;;12.30;11.10;;;;;;;14.19;87.34;101231.25;693565;28;1344;-59
2021/08/05 01:20:45;;;;;;;12.20;11.10;;;;;;;14.18;87.17;101232.19;693458;28;1010;-59
2021/08/05 01:21:50;;;;;;;12.73;11.63;;;;;;;14.21;87.41;101232.03;693477;28;1951;-59
2021/08/05 01:22:38;;;;;;;12.43;11.32;;;;;;;14.20;87.03;101230.28;691492;28;1441;-60
2021/08/05 01:23:35;;;;;;;12.30;11.20;;;;;;;14.22;87.31;101228.44;679155;29;1107;-59
2021/08/05 01:24:01;;;;;;;12.45;11.25;;;;;;;14.20;86.90;101229.44;685418;28;1491;-59
2021/08/05 01:24:24;;;;;;;12.52;11.32;;;;;;;14.18;87.07;101226.03;692445;28;1421;-59
2021/08/05 01:24:54;;;;;;;12.25;11.10;;;;;;;14.20;87.19;101230.28;693387;28;828;-59
2021/08/05 01:25:42;;;;;;;12.20;11.10;;;;;;;14.23;86.92;101224.84;693384;28;889;-59
2021/08/05 01:26:05;;;;;;;11.88;10.77;;;;;;;14.18;87.32;101226.88;693387;28;955;-59
2021/08/05 01:26:47;;;;;;;12.25;11.15;;;;;;;14.18;87.23;101223.38;693311;28;979;-59
2021/08/05 01:27:10;;;;;;;11.95;10.85;;;;;;;14.16;87.32;101228.75;693511;28;1106;-59
2021/08/05 01:27:32;;;;;;;12.25;11.05;;;;;;;14.14;86.98;101217.38;693358;28;1464;-59
2021/08/05 01:27:53;;;;;;;12.52;11.35;;;;;;;14.17;87.33;101227.81;693701;28;825;-59
2021/08/05 01:28:14;;;;;;;12.52;11.43;;;;;;;14.18;86.94;101224.22;693619;28;1016;-59
2021/08/05 01:28:37;;;;;;;12.10;11.00;;;;;;;14.17;86.99;101225.16;693497;28;976;-59
2021/08/05 01:29:00;;;;;;;12.40;11.30;;;;;;;14.19;87.06;101223.28;693596;28;939;-59
2021/08/05 01:29:20;;;;;;;12.07;10.98;;;;;;;14.17;86.96;101219.84;693600;28;881;-60
2021/08/05 01:29:41;;;;;;;12.43;11.23;;;;;;;14.21;86.63;101221.44;693627;28;919;-60
2021/08/05 01:30:03;;;;;;;12.02;10.93;;;;;;;14.23;86.58;101231.94;693698;28;907;-60
2021/08/05 01:30:26;;;;;;;11.77;10.70;;;;;;;14.17;86.74;101219.00;693374;28;1250;-60
2021/08/05 01:30:49;;;;;;;11.95;10.95;;;;;;;14.16;86.76;101223.44;693607;28;1026;-60
2021/08/05 01:31:10;;;;;;;12.30;11.20;;;;;;;14.17;86.60;101227.81;693586;28;1109;-60
2021/08/05 01:31:33;;;;;;;12.45;11.25;;;;;;;14.16;86.78;101222.59;693567;28;1086;-59
2021/08/05 01:31:54;;;;;;;11.50;10.50;;;;;;;14.18;86.53;101221.59;693691;28;845;-60
2021/08/05 01:32:18;;;;;;;11.98;10.88;;;;;;;14.19;86.65;101228.59;691209;28;1401;-58
2021/08/05 01:32:43;;;;;;;11.80;10.70;;;;;;;14.20;86.80;101230.28;690864;28;888;-59
2021/08/05 01:33:08;;;;;;;11.65;10.55;;;;;;;14.18;86.40;101226.88;690795;28;961;-60
2021/08/05 01:33:30;;;;;;;12.18;11.07;;;;;;;14.15;86.26;101221.72;690873;28;967;-59
2021/08/05 01:33:52;;;;;;;12.15;11.05;;;;;;;14.17;86.56;101222.50;691077;28;885;-59
2021/08/05 01:34:16;;;;;;;11.80;10.80;;;;;;;14.17;86.62;101225.16;692897;28;1516;-60
2021/08/05 01:34:37;;;;;;;11.60;10.60;;;;;;;14.18;86.47;101221.59;693610;28;826;-60
2021/08/05 01:35:01;;;;;;;12.00;10.90;;;;;;;14.19;86.64;101222.44;693827;28;983;-59
2021/08/05 01:35:22;;;;;;;11.95;10.77;;;;;;;14.18;86.50;101218.94;693678;28;1121;-59
2021/08/05 01:35:43;;;;;;;12.05;10.85;;;;;;;14.20;86.72;101225.00;693766;28;905;-59
2021/08/05 01:36:05;;;;;;;12.57;11.38;;;;;;;14.21;86.60;101220.53;693641;28;1052;-60
2021/08/05 01:36:27;;;;;;;12.48;11.27;;;;;;;14.23;86.23;101224.00;693629;28;928;-60
2021/08/05 01:36:51;;;;;;;12.65;11.45;;;;;;;14.19;86.34;101220.63;693655;28;1011;-60
2021/08/05 01:37:12;;;;;;;12.88;11.68;;;;;;;14.21;86.40;101218.78;693656;28;903;-61
2021/08/05 01:37:33;;;;;;;12.30;11.20;;;;;;;14.22;86.42;101217.84;693614;28;840;-60
2021/08/05 01:37:55;;;;;;;12.00;10.90;;;;;;;14.18;86.38;101210.97;693571;28;905;-60
2021/08/05 01:38:17;;;;;;;11.93;10.82;;;;;;;14.21;86.42;101229.38;693526;28;988;-60
2021/08/05 01:38:46;;;;;;;11.65;10.55;;;;;;;14.21;86.61;101221.44;693658;28;867;-60
2021/08/05 01:39:06;;;;;;;12.20;11.10;;;;;;;14.21;86.25;101221.44;693596;28;1050;-59
2021/08/05 01:39:28;;;;;;;12.17;11.07;;;;;;;14.20;86.70;101219.69;693624;28;931;-60
2021/08/05 01:39:55;;;;;;;12.07;11.07;;;;;;;14.17;86.63;101213.69;693141;28;1381;-60
2021/08/05 01:40:16;;;;;;;12.35;11.10;;;;;;;14.18;86.43;101218.06;693484;28;1358;-60
2021/08/05 01:40:37;;;;;;;12.50;11.30;;;;;;;14.19;86.75;101211.84;693569;28;940;-59
2021/08/05 01:40:59;;;;;;;12.27;11.18;;;;;;;14.21;86.72;101216.13;693529;28;1906;-59
2021/08/05 01:41:24;;;;;;;11.90;10.80;;;;;;;14.21;86.74;101221.44;693394;28;1537;-59
2021/08/05 01:41:46;;;;;;;11.68;10.68;;;;;;;14.21;86.67;101216.13;693439;28;1489;-60
2021/08/05 01:42:07;;;;;;;11.77;10.70;;;;;;;14.19;86.41;101212.69;693399;28;1119;-59
2021/08/05 01:42:30;;;;;;;11.93;10.73;;;;;;;14.15;86.90;101211.13;692723;28;1455;-59
2021/08/05 01:42:51;;;;;;;12.02;10.82;;;;;;;14.16;86.62;101212.84;690727;28;1420;-60
2021/08/05 01:43:14;;;;;;;11.70;10.60;;;;;;;14.18;86.66;101212.78;690811;28;896;-59
2021/08/05 01:43:37;;;;;;;12.48;11.35;;;;;;;14.16;86.45;101212.84;690883;28;943;-59
2021/08/05 01:43:59;;;;;;;12.23;11.07;;;;;;;14.18;86.59;101210.13;690780;28;1023;-60
2021/08/05 01:44:21;;;;;;;12.38;11.13;;;;;;;14.17;86.43;101208.38;690823;28;979;-60
2021/08/05 01:44:45;;;;;;;12.07;10.98;;;;;;;14.11;86.29;101214.00;690985;28;923;-59
2021/08/05 01:45:12;;;;;;;12.40;11.30;;;;;;;14.13;86.46;101212.13;690636;28;964;-59
2021/08/05 01:45:33;;;;;;;12.75;11.57;;;;;;;14.11;86.55;101214.88;690946;28;919;-59
2021/08/05 01:45:53;;;;;;;12.65;11.45;;;;;;;14.05;86.58;101204.59;690794;28;895;-59
2021/08/05 01:46:20;;;;;;;12.23;11.03;;;;;;;14.08;86.39;101207.09;690971;28;805;-59
2021/08/05 01:46:42;;;;;;;12.60;11.40;;;;;;;14.10;86.62;101214.94;690945;28;1401;-60
2021/08/05 01:47:05;;;;;;;12.27;11.18;;;;;;;14.10;86.55;101213.13;690621;28;967;-60
2021/08/05 01:47:26;;;;;;;12.63;11.43;;;;;;;14.10;86.41;101210.50;690951;28;900;-60
2021/08/05 01:47:47;;;;;;;12.70;11.50;;;;;;;14.11;86.72;101209.59;690892;28;1019;-59
2021/08/05 01:48:12;;;;;;;12.37;11.27;;;;;;;14.10;86.48;101202.53;690513;28;876;-59
2021/08/05 01:48:33;;;;;;;11.88;10.70;;;;;;;14.08;86.57;101215.03;690670;28;879;-59
2021/08/05 01:48:54;;;;;;;11.90;10.70;;;;;;;14.04;86.71;101207.28;690467;28;833;-59
2021/08/05 01:49:15;;;;;;;12.10;11.00;;;;;;;14.02;86.73;101208.22;690623;28;824;-59